Time;durP1;ratioP1;P1;durP2;ratioP2;P2;SDS_P1;SDS_P2;PMS_P1;PMS_P2;Temp;Humidity;BMP_temperature;BMP_pressure;BME280_temperature;BME280_humidity;BME280_pressure;Samples;Min_cycle;Max_cycle;Signal;HPM_P1;HPM_P2
2022/08/30 00:03:09;;;;;;;2.00;1.80;;;;;;;25.08;65.45;97714.38;5068223;28;20252;-32
2022/08/30 00:05:36;;;;;;;2.23;2.13;;;;;;;25.08;65.44;97710.97;5060304;28;20204;-31
2022/08/30 00:08:03;;;;;;;1.90;1.80;;;;;;;25.08;65.55;97709.25;5062935;28;20668;-32
2022/08/30 00:10:29;;;;;;;1.97;1.87;;;;;;;24.44;65.37;97600.03;5057869;28;20798;-31
2022/08/30 00:12:57;;;;;;;2.10;2.00;;;;;;;25.08;65.38;97708.41;5057814;28;20224;-31
2022/08/30 00:15:25;;;;;;;1.90;1.80;;;;;;;25.07;65.30;97702.38;5063735;28;20247;-31
2022/08/30 00:17:51;;;;;;;2.10;1.90;;;;;;;25.08;65.22;97710.97;5059195;28;20653;-32
2022/08/30 00:20:22;;;;;;;2.23;2.10;;;;;;;25.08;65.17;97713.53;5069169;28;20244;-31
2022/08/30 00:22:49;;;;;;;2.03;1.93;;;;;;;25.07;65.33;97712.66;5061350;28;20770;-31
2022/08/30 00:25:16;;;;;;;2.10;2.00;;;;;;;25.08;65.51;97711.81;5064262;28;20251;-31
2022/08/30 00:27:44;;;;;;;2.03;1.93;;;;;;;25.07;65.53;97710.09;5057673;28;20269;-31
2022/08/30 00:30:12;;;;;;;1.87;1.77;;;;;;;25.07;65.37;97714.34;5060553;28;20219;-31
2022/08/30 00:32:39;;;;;;;2.00;1.90;;;;;;;25.07;65.23;97711.78;5063514;28;20292;-32
2022/08/30 00:35:06;;;;;;;2.00;1.90;;;;;;;25.07;65.53;97717.81;5068145;28;20320;-31
2022/08/30 00:37:33;;;;;;;2.13;2.03;;;;;;;25.08;65.09;97710.97;5060327;28;20749;-31
2022/08/30 00:39:59;;;;;;;1.80;1.70;;;;;;;25.02;65.56;97704.00;5061162;28;20953;-31
2022/08/30 00:42:26;;;;;;;1.90;1.80;;;;;;;25.07;65.31;97706.66;5064012;28;20210;-31
2022/08/30 00:44:52;;;;;;;2.00;1.90;;;;;;;25.07;65.57;97704.94;5053420;28;20256;-31
2022/08/30 00:47:19;;;;;;;2.10;2.00;;;;;;;25.07;65.67;97712.66;5061563;28;20200;-31
2022/08/30 00:49:48;;;;;;;1.93;1.83;;;;;;;25.01;65.07;97694.56;5056820;28;20259;-31
2022/08/30 00:52:15;;;;;;;1.93;1.83;;;;;;;25.08;65.06;97698.09;5052072;28;20235;-31
2022/08/30 00:54:43;;;;;;;1.90;1.80;;;;;;;25.07;65.33;97704.94;5065755;28;20228;-31
2022/08/30 00:57:10;;;;;;;1.83;1.73;;;;;;;25.04;65.67;97704.91;5047240;28;20200;-31
2022/08/30 00:59:37;;;;;;;2.07;1.97;;;;;;;25.02;65.32;97701.41;5056486;28;20233;-31
2022/08/30 01:02:04;;;;;;;1.90;1.80;;;;;;;25.08;65.60;97710.97;5066187;28;20211;-31
2022/08/30 01:04:31;;;;;;;1.90;1.80;;;;;;;25.06;65.30;97708.38;5061037;28;20329;-31
2022/08/30 01:06:59;;;;;;;2.30;2.10;;;;;;;24.96;65.45;97688.44;5060879;28;20572;-32
2022/08/30 01:09:25;;;;;;;2.00;1.90;;;;;;;25.02;65.68;97701.41;5052337;28;20254;-31
2022/08/30 01:11:52;;;;;;;2.17;2.07;;;;;;;25.04;65.52;97707.47;5053905;28;20317;-31
2022/08/30 01:14:20;;;;;;;2.10;2.00;;;;;;;25.07;65.10;97702.38;5064902;28;20652;-31
2022/08/30 01:16:51;;;;;;;2.23;2.13;;;;;;;24.97;65.16;97681.59;5055634;28;20208;-31
2022/08/30 01:19:39;;;;;;;2.13;2.03;;;;;;;25.07;65.66;97701.50;5049832;28;20232;-32
2022/08/30 01:22:29;;;;;;;1.97;1.87;;;;;;;24.96;65.41;97687.59;5048568;28;20618;-31
2022/08/30 01:24:57;;;;;;;2.07;1.97;;;;;;;25.07;65.27;97698.94;5053732;28;20238;-31
2022/08/30 01:27:24;;;;;;;1.83;1.73;;;;;;;25.07;65.29;97701.50;5059436;28;20224;-31
2022/08/30 01:29:50;;;;;;;2.30;2.20;;;;;;;24.89;65.11;97671.19;5059667;28;20679;-31
2022/08/30 01:32:19;;;;;;;2.10;2.00;;;;;;;25.07;65.52;97701.50;5056014;28;20561;-31
2022/08/30 01:34:47;;;;;;;2.17;2.00;;;;;;;25.07;65.58;97704.06;5060314;28;20236;-31
2022/08/30 01:37:18;;;;;;;2.40;2.20;;;;;;;25.01;65.18;97697.13;5052793;28;20228;-31
2022/08/30 01:39:45;;;;;;;2.07;1.97;;;;;;;25.06;65.20;97710.94;5060742;28;20509;-31
2022/08/30 01:42:13;;;;;;;2.00;1.90;;;;;;;25.06;65.57;97713.50;5051974;28;20707;-31
2022/08/30 01:44:40;;;;;;;2.20;2.00;;;;;;;25.05;65.70;97709.19;5060021;28;20263;-31
2022/08/30 01:47:06;;;;;;;1.80;1.70;;;;;;;25.06;65.43;97704.91;5061750;28;20833;-31
2022/08/30 01:49:33;;;;;;;1.83;1.73;;;;;;;25.06;65.07;97708.38;5070435;28;20603;-31
2022/08/30 01:52:00;;;;;;;2.07;1.97;;;;;;;25.05;65.75;97701.47;5067782;28;20683;-31
2022/08/30 01:54:30;;;;;;;2.07;1.90;;;;;;;25.07;65.14;97704.94;5062443;28;20252;-31
2022/08/30 01:57:05;;;;;;;2.07;1.97;;;;;;;25.06;65.20;97695.50;5070032;28;20200;-32
2022/08/30 01:59:32;;;;;;;2.07;1.97;;;;;;;25.06;65.41;97698.09;5056855;28;20648;-31
2022/08/30 02:01:58;;;;;;;2.00;1.90;;;;;;;25.06;65.22;97700.66;5067215;28;20239;-31
2022/08/30 02:04:25;;;;;;;2.17;2.07;;;;;;;25.03;65.45;97695.47;5058555;28;20753;-31
2022/08/30 02:06:52;;;;;;;2.00;1.90;;;;;;;25.04;65.64;97691.16;5057374;28;20239;-31
2022/08/30 02:09:19;;;;;;;2.20;2.10;;;;;;;25.06;65.61;97712.63;5070113;28;20287;-31
2022/08/30 02:11:47;;;;;;;1.83;1.73;;;;;;;25.06;65.28;97708.38;5068988;28;20284;-31
2022/08/30 02:14:13;;;;;;;2.10;2.00;;;;;;;25.03;65.62;97700.59;5054407;28;20256;-32
2022/08/30 02:16:40;;;;;;;2.40;2.30;;;;;;;25.06;65.13;97694.63;5060070;28;20248;-32
2022/08/30 02:19:07;;;;;;;2.20;2.10;;;;;;;25.07;65.43;97702.38;5058843;28;20212;-31
2022/08/30 02:21:33;;;;;;;2.40;2.30;;;;;;;25.04;65.38;97702.31;5069929;28;20323;-31
2022/08/30 02:24:00;;;;;;;2.10;2.00;;;;;;;25.06;65.43;97705.81;5057512;28;20259;-31
2022/08/30 02:26:27;;;;;;;2.03;1.93;;;;;;;25.06;65.21;97698.09;5069651;28;20290;-31
2022/08/30 02:28:54;;;;;;;1.97;1.87;;;;;;;25.07;65.33;97702.38;5054601;28;20208;-31
2022/08/30 02:31:21;;;;;;;1.87;1.77;;;;;;;25.07;65.15;97711.78;5051167;28;20262;-31
2022/08/30 02:33:49;;;;;;;2.07;1.97;;;;;;;25.07;65.44;97707.53;5059441;28;20264;-31
2022/08/30 02:36:16;;;;;;;2.00;1.90;;;;;;;25.06;65.60;97707.50;5054846;28;20270;-31
2022/08/30 02:38:43;;;;;;;2.10;2.00;;;;;;;25.00;65.44;97695.41;5058491;28;20204;-31
2022/08/30 02:41:10;;;;;;;2.13;2.03;;;;;;;25.06;65.27;97705.81;5070204;28;20218;-31
2022/08/30 02:43:36;;;;;;;2.00;1.90;;;;;;;25.06;65.34;97705.81;5062107;28;20252;-31
2022/08/30 02:46:03;;;;;;;2.03;1.93;;;;;;;25.06;65.48;97707.50;5055908;28;20687;-31
2022/08/30 02:48:30;;;;;;;2.10;2.00;;;;;;;24.97;65.69;97691.91;5062870;28;20639;-31
2022/08/30 02:51:03;;;;;;;2.17;2.07;;;;;;;25.06;65.12;97705.81;5061603;28;20722;-31
2022/08/30 02:53:30;;;;;;;2.10;2.00;;;;;;;25.07;65.42;97711.78;5069769;28;20252;-31
2022/08/30 02:55:57;;;;;;;2.03;1.93;;;;;;;25.06;65.43;97707.50;5060552;28;20208;-31
2022/08/30 02:58:25;;;;;;;2.00;1.90;;;;;;;25.06;65.67;97700.66;5053958;28;20215;-31
2022/08/30 03:00:51;;;;;;;2.00;1.90;;;;;;;25.06;65.69;97708.38;5060158;28;20260;-31
2022/08/30 03:03:18;;;;;;;2.07;1.97;;;;;;;25.05;64.91;97695.47;5053727;28;20278;-31
2022/08/30 03:05:45;;;;;;;2.17;2.07;;;;;;;25.02;65.31;97698.84;5059600;28;20240;-31
2022/08/30 03:08:12;;;;;;;2.30;2.20;;;;;;;25.04;65.59;97697.19;5069973;28;20259;-31
2022/08/30 03:10:38;;;;;;;2.50;2.30;;;;;;;25.02;65.79;97704.00;5073168;28;20315;-32
2022/08/30 03:13:06;;;;;;;2.23;2.13;;;;;;;25.01;65.47;97698.81;5073034;28;20251;-31
2022/08/30 03:15:34;;;;;;;2.20;2.10;;;;;;;25.08;65.28;97710.97;5065076;28;20291;-31
2022/08/30 03:18:01;;;;;;;2.20;2.10;;;;;;;25.06;66.01;97713.50;5062210;28;20287;-31
2022/08/30 03:20:27;;;;;;;1.97;1.87;;;;;;;25.06;65.44;97710.06;5072339;28;20290;-31
2022/08/30 03:22:54;;;;;;;2.20;2.10;;;;;;;25.06;65.13;97717.78;5063048;28;20260;-31
2022/08/30 03:25:21;;;;;;;2.07;1.97;;;;;;;25.04;65.38;97711.72;5060909;28;20708;-31
2022/08/30 03:27:48;;;;;;;2.30;2.20;;;;;;;25.06;65.59;97712.63;5064119;28;20664;-31
2022/08/30 03:30:15;;;;;;;2.20;2.10;;;;;;;25.06;65.71;97716.09;5058212;28;20240;-31
2022/08/30 03:32:41;;;;;;;2.07;1.97;;;;;;;24.92;65.65;97689.25;5064526;28;20239;-32
2022/08/30 03:35:08;;;;;;;2.10;2.00;;;;;;;25.06;65.47;97715.22;5102437;22;20234;-21
2022/08/30 03:37:35;;;;;;;2.20;2.10;;;;;;;25.06;65.58;97708.38;5089527;28;20299;-21
2022/08/30 03:40:03;;;;;;;2.17;2.07;;;;;;;25.06;65.38;97705.81;5079462;28;20291;-22
2022/08/30 03:42:32;;;;;;;2.43;2.27;;;;;;;25.06;65.28;97707.50;5079684;28;20591;-21
2022/08/30 03:45:01;;;;;;;2.20;2.10;;;;;;;25.06;65.56;97710.06;5082251;28;20219;-21
2022/08/30 03:47:28;;;;;;;2.10;2.00;;;;;;;25.05;65.63;97709.19;5088149;28;20208;-21
2022/08/30 03:49:54;;;;;;;2.30;2.20;;;;;;;25.05;65.19;97713.50;5090640;28;20678;-21
2022/08/30 03:52:21;;;;;;;2.37;2.27;;;;;;;25.05;65.45;97711.75;5088461;28;20242;-21
2022/08/30 03:54:47;;;;;;;2.33;2.20;;;;;;;25.06;65.52;97710.94;5083550;28;20246;-21
2022/08/30 03:57:14;;;;;;;2.10;2.00;;;;;;;25.06;65.67;97712.63;5090641;28;20238;-21
2022/08/30 03:59:45;;;;;;;2.10;2.00;;;;;;;25.06;65.08;97710.06;5090514;28;20203;-21
2022/08/30 04:02:12;;;;;;;2.17;2.07;;;;;;;25.04;65.55;97709.16;5090083;28;20299;-21
2022/08/30 04:04:39;;;;;;;2.00;1.90;;;;;;;25.04;65.44;97712.59;5086268;28;20258;-21
2022/08/30 04:07:05;;;;;;;2.23;2.13;;;;;;;25.06;65.23;97722.94;5090017;28;20254;-21
2022/08/30 04:09:32;;;;;;;2.10;1.90;;;;;;;25.05;65.46;97722.03;5090549;28;20286;-21
2022/08/30 04:11:59;;;;;;;1.87;1.77;;;;;;;25.05;65.71;97716.91;5089406;28;20592;-21
2022/08/30 04:14:25;;;;;;;2.33;2.23;;;;;;;25.06;65.25;97723.81;5089925;28;20405;-21
2022/08/30 04:16:52;;;;;;;2.07;1.97;;;;;;;25.05;65.20;97727.19;5090017;28;20196;-21
2022/08/30 04:19:19;;;;;;;2.27;2.07;;;;;;;25.06;65.30;97730.63;5090278;28;20256;-21
2022/08/30 04:21:45;;;;;;;2.20;2.10;;;;;;;25.06;65.40;97733.22;5082600;28;20245;-21
2022/08/30 04:24:12;;;;;;;2.10;2.00;;;;;;;25.06;65.63;97730.63;5090017;28;20259;-21
2022/08/30 04:26:39;;;;;;;2.03;1.93;;;;;;;25.06;65.63;97733.22;5083433;28;20243;-21
2022/08/30 04:29:05;;;;;;;2.20;2.10;;;;;;;25.05;65.30;97732.34;5089417;28;20286;-21
2022/08/30 04:31:32;;;;;;;2.07;1.97;;;;;;;25.06;65.20;97735.78;5084721;28;20643;-21
2022/08/30 04:33:58;;;;;;;2.30;2.20;;;;;;;25.06;65.50;97735.78;5089800;28;20306;-21
2022/08/30 04:36:25;;;;;;;2.20;2.10;;;;;;;25.06;65.22;97741.81;5089384;28;20690;-21
2022/08/30 04:38:52;;;;;;;2.30;2.20;;;;;;;25.06;65.38;97749.53;5089483;28;20887;-21
2022/08/30 04:41:19;;;;;;;2.30;2.20;;;;;;;25.07;65.60;97746.09;5086025;28;20307;-21
2022/08/30 04:43:48;;;;;;;2.23;2.13;;;;;;;25.07;65.37;97748.66;5088972;28;20725;-21
2022/08/30 04:46:14;;;;;;;2.53;2.33;;;;;;;25.06;65.65;97746.94;5086725;28;20344;-21
2022/08/30 04:48:41;;;;;;;2.10;2.00;;;;;;;25.06;65.31;97752.09;5084310;28;20204;-21
2022/08/30 04:51:09;;;;;;;2.07;1.97;;;;;;;25.07;65.05;97745.22;5089381;28;20219;-21
2022/08/30 04:53:36;;;;;;;2.27;2.17;;;;;;;25.07;65.61;97742.66;5089603;28;20266;-21
2022/08/30 04:56:15;;;;;;;2.10;2.00;;;;;;;25.06;65.12;97744.38;5089149;28;20239;-21
2022/08/30 04:58:42;;;;;;;2.30;2.20;;;;;;;25.06;65.13;97740.94;5086203;28;20235;-21
2022/08/30 05:01:17;;;;;;;2.40;2.30;;;;;;;25.06;65.08;97743.50;5089514;28;20192;-21
2022/08/30 05:03:46;;;;;;;2.77;2.57;;;;;;;25.05;65.22;97744.34;5089534;28;20223;-21
2022/08/30 05:06:13;;;;;;;2.30;2.20;;;;;;;25.07;65.23;97750.38;5085992;28;20290;-21
2022/08/30 05:08:39;;;;;;;2.20;2.10;;;;;;;25.07;65.48;97753.81;5082489;28;20291;-21
2022/08/30 05:11:12;;;;;;;2.20;2.10;;;;;;;25.07;65.46;97750.38;5082651;28;20224;-21
2022/08/30 05:13:38;;;;;;;2.37;2.27;;;;;;;25.07;65.33;97746.09;5085679;28;20306;-21
2022/08/30 05:16:05;;;;;;;2.40;2.30;;;;;;;25.06;65.12;97739.22;5080904;28;20279;-21
2022/08/30 05:18:32;;;;;;;2.47;2.27;;;;;;;25.07;65.29;97750.38;5089040;28;20195;-21
2022/08/30 05:21:13;;;;;;;2.10;2.00;;;;;;;25.06;65.59;97746.94;5081774;28;20200;-21
2022/08/30 05:23:40;;;;;;;2.23;2.13;;;;;;;25.06;65.55;97752.09;5087928;28;20250;-21
2022/08/30 05:26:08;;;;;;;2.40;2.30;;;;;;;25.07;65.30;97752.94;5074091;28;20814;-21
2022/08/30 05:28:35;;;;;;;2.50;2.30;;;;;;;25.07;65.62;97750.38;5086519;28;20258;-21
2022/08/30 05:31:02;;;;;;;2.37;2.27;;;;;;;25.07;65.08;97758.97;5088097;28;20322;-21
2022/08/30 05:33:29;;;;;;;2.27;2.17;;;;;;;25.07;65.30;97756.38;5088885;28;20601;-21
2022/08/30 05:35:55;;;;;;;2.30;2.20;;;;;;;25.08;65.17;97763.25;5084102;28;20311;-21
2022/08/30 05:38:22;;;;;;;2.07;1.97;;;;;;;25.07;65.58;97758.06;5081654;28;20283;-22
2022/08/30 05:40:49;;;;;;;2.10;2.00;;;;;;;25.08;65.29;97759.84;5085169;28;20204;-21
2022/08/30 05:43:15;;;;;;;2.50;2.40;;;;;;;25.09;65.48;97761.56;5082156;28;20199;-21
2022/08/30 05:45:42;;;;;;;2.30;2.20;;;;;;;25.08;65.48;97757.25;5087923;28;20206;-21
2022/08/30 05:48:08;;;;;;;2.30;2.20;;;;;;;25.08;65.45;97760.69;5088261;28;20235;-21
2022/08/30 05:50:38;;;;;;;2.30;2.20;;;;;;;25.06;65.07;97769.22;5080436;28;20227;-21
2022/08/30 05:53:05;;;;;;;2.20;2.10;;;;;;;25.07;65.10;97782.09;5080016;28;20542;-21
2022/08/30 05:55:32;;;;;;;2.30;2.20;;;;;;;25.08;65.16;97786.41;5087914;28;20644;-21
2022/08/30 05:57:59;;;;;;;2.30;2.20;;;;;;;25.08;65.27;97785.56;5084864;28;20232;-21
2022/08/30 06:00:29;;;;;;;2.57;2.37;;;;;;;25.08;64.98;97790.69;5088042;28;20736;-21
2022/08/30 06:02:55;;;;;;;2.47;2.33;;;;;;;25.08;65.13;97783.81;5087771;28;20697;-21
2022/08/30 06:05:22;;;;;;;2.33;2.23;;;;;;;25.09;65.07;97795.00;5087963;28;20352;-21
2022/08/30 06:07:48;;;;;;;2.30;2.20;;;;;;;25.09;65.35;97788.16;5087792;28;20246;-21
2022/08/30 06:10:15;;;;;;;2.30;2.20;;;;;;;25.09;65.22;97784.72;5082053;28;20556;-21
2022/08/30 06:12:42;;;;;;;2.30;2.20;;;;;;;25.09;65.01;97792.44;5086311;28;20227;-21
2022/08/30 06:15:09;;;;;;;2.20;2.10;;;;;;;25.09;65.35;97787.28;5077373;28;20253;-21
2022/08/30 06:17:38;;;;;;;2.20;2.10;;;;;;;25.09;65.40;97788.16;5086557;28;20213;-21
2022/08/30 06:20:05;;;;;;;2.23;2.13;;;;;;;25.09;65.46;97782.13;5088363;28;20211;-21
2022/08/30 06:22:32;;;;;;;2.40;2.30;;;;;;;25.09;65.00;97784.72;5080229;28;20225;-21
2022/08/30 06:24:58;;;;;;;2.63;2.30;;;;;;;25.09;65.06;97792.44;5088104;28;20298;-21
2022/08/30 06:27:25;;;;;;;2.50;2.30;;;;;;;25.09;64.85;97790.72;5087677;28;20686;-21
2022/08/30 06:29:51;;;;;;;2.23;2.13;;;;;;;25.09;65.28;97783.00;5084062;28;20320;-21
2022/08/30 06:32:18;;;;;;;2.40;2.30;;;;;;;25.08;65.24;97791.53;5088076;28;20401;-21
2022/08/30 06:34:45;;;;;;;2.50;2.30;;;;;;;25.09;65.09;97788.16;5082181;28;20326;-21
2022/08/30 06:37:11;;;;;;;2.20;2.10;;;;;;;25.10;65.26;97789.88;5090701;28;20225;-21
2022/08/30 06:39:56;;;;;;;2.50;2.30;;;;;;;25.10;65.08;97783.84;5089385;28;20433;-21
2022/08/30 06:42:23;;;;;;;2.37;2.27;;;;;;;25.10;65.03;97778.72;5090070;28;20282;-21
2022/08/30 06:44:50;;;;;;;2.70;2.50;;;;;;;25.09;65.00;97780.44;5087193;28;20307;-22
2022/08/30 06:47:16;;;;;;;2.30;2.10;;;;;;;25.09;65.00;97775.28;5083677;28;20646;-21
2022/08/30 06:49:43;;;;;;;2.20;2.10;;;;;;;25.10;65.10;97782.16;5089451;28;20290;-22
2022/08/30 06:52:10;;;;;;;2.60;2.40;;;;;;;25.11;64.92;97783.03;5091900;28;20250;-21
2022/08/30 06:54:37;;;;;;;2.20;2.10;;;;;;;25.10;65.24;97784.75;5090612;28;20277;-21
2022/08/30 06:57:04;;;;;;;2.30;2.20;;;;;;;25.10;64.93;97786.44;5091329;28;20446;-22
2022/08/30 06:59:31;;;;;;;2.20;2.10;;;;;;;25.09;65.32;97783.00;5091180;28;20239;-21
2022/08/30 07:01:57;;;;;;;2.57;2.40;;;;;;;25.10;65.21;97787.31;5086647;28;20673;-21
2022/08/30 07:04:24;;;;;;;2.20;2.10;;;;;;;25.09;65.22;97777.88;5083632;28;20263;-21
2022/08/30 07:06:51;;;;;;;2.50;2.40;;;;;;;25.09;65.02;97780.44;5091443;28;20227;-21
2022/08/30 07:09:18;;;;;;;2.50;2.37;;;;;;;25.10;65.18;97786.44;5085054;28;20291;-21
2022/08/30 07:11:48;;;;;;;2.70;2.50;;;;;;;25.10;65.34;97791.56;5090818;28;20227;-23
2022/08/30 07:14:14;;;;;;;2.30;2.20;;;;;;;25.09;65.06;97783.00;5090660;28;20262;-22
2022/08/30 07:16:42;;;;;;;2.33;2.23;;;;;;;25.10;65.11;97799.28;5088912;28;20414;-21
2022/08/30 07:19:09;;;;;;;2.60;2.40;;;;;;;25.10;65.06;97794.16;5086548;28;20235;-22
2022/08/30 07:21:47;;;;;;;2.60;2.50;;;;;;;25.10;65.39;97783.84;5090126;28;20200;-22
2022/08/30 07:24:14;;;;;;;2.30;2.20;;;;;;;25.10;65.27;97802.75;5087057;28;20229;-21
2022/08/30 07:26:45;;;;;;;2.40;2.30;;;;;;;25.10;65.03;97781.28;5089078;28;20295;-21
2022/08/30 07:29:12;;;;;;;2.33;2.20;;;;;;;25.10;65.16;97781.28;5088164;28;20674;-21
2022/08/30 07:31:39;;;;;;;2.37;2.27;;;;;;;25.10;65.38;97782.16;5085859;28;20701;-22
2022/08/30 07:34:05;;;;;;;2.20;2.10;;;;;;;25.10;65.40;97787.31;5088494;28;20784;-21
2022/08/30 07:36:32;;;;;;;2.87;2.67;;;;;;;25.10;65.37;97784.75;5086417;28;20287;-21
2022/08/30 07:38:59;;;;;;;2.57;2.37;;;;;;;25.10;65.00;97778.72;5090001;28;20240;-21
2022/08/30 07:41:27;;;;;;;2.43;2.33;;;;;;;25.10;65.23;97778.72;5087105;28;20710;-21
2022/08/30 07:43:54;;;;;;;2.40;2.30;;;;;;;25.10;65.18;97778.72;5083487;28;20664;-21
2022/08/30 07:46:21;;;;;;;2.63;2.43;;;;;;;25.09;65.11;97777.88;5083047;28;20286;-21
2022/08/30 07:48:48;;;;;;;2.40;2.30;;;;;;;25.09;65.32;97777.88;5086994;28;20302;-21
2022/08/30 07:51:17;;;;;;;2.30;2.20;;;;;;;25.10;65.21;97774.44;5084194;28;20261;-21
2022/08/30 07:53:43;;;;;;;2.40;2.30;;;;;;;25.10;65.21;97777.03;5087260;28;20255;-21
2022/08/30 07:56:10;;;;;;;2.40;2.30;;;;;;;25.10;65.36;97776.13;5085880;28;20773;-22
2022/08/30 07:58:37;;;;;;;2.37;2.27;;;;;;;25.10;65.27;97777.03;5087145;28;20304;-21
2022/08/30 08:01:05;;;;;;;2.50;2.30;;;;;;;25.10;65.00;97774.44;5083196;28;20630;-21
2022/08/30 08:03:32;;;;;;;2.47;2.27;;;;;;;25.09;65.22;97775.28;5084470;28;20676;-21
2022/08/30 08:06:00;;;;;;;2.40;2.30;;;;;;;25.11;65.45;97785.63;5087900;28;20576;-21
2022/08/30 08:08:26;;;;;;;2.40;2.30;;;;;;;25.10;64.99;97779.59;5089912;28;20649;-21
2022/08/30 08:10:53;;;;;;;2.30;2.20;;;;;;;25.10;65.25;97786.44;5087576;28;20235;-21
2022/08/30 08:13:20;;;;;;;2.43;2.30;;;;;;;25.10;65.07;97786.44;5084705;28;20307;-21
2022/08/30 08:15:46;;;;;;;2.40;2.30;;;;;;;25.11;65.02;97788.19;5087769;28;20243;-21
2022/08/30 08:18:13;;;;;;;2.37;2.27;;;;;;;25.10;65.31;97787.31;5086369;28;20200;-21
2022/08/30 08:20:39;;;;;;;2.27;2.17;;;;;;;25.10;65.14;97783.84;5086335;28;20286;-21
2022/08/30 08:23:06;;;;;;;2.43;2.23;;;;;;;25.10;65.16;97792.44;5075892;28;21054;-21
2022/08/30 08:25:37;;;;;;;2.40;2.30;;;;;;;25.09;65.03;97783.00;5080714;28;20704;-21
2022/08/30 08:28:03;;;;;;;2.57;2.40;;;;;;;25.11;65.17;97785.63;5083715;28;20231;-21
2022/08/30 08:30:32;;;;;;;2.70;2.50;;;;;;;25.10;65.39;97786.44;5082652;28;20295;-21
2022/08/30 08:32:58;;;;;;;2.90;2.70;;;;;;;25.11;65.07;97780.47;5088139;28;20731;-21
2022/08/30 08:35:25;;;;;;;2.40;2.30;;;;;;;25.10;64.86;97779.59;5085929;28;20251;-21
2022/08/30 08:37:52;;;;;;;2.10;2.00;;;;;;;25.10;65.47;97781.28;5081129;28;20651;-21
2022/08/30 08:40:18;;;;;;;2.70;2.50;;;;;;;25.11;65.39;97780.47;5089781;28;20235;-21
2022/08/30 08:43:02;;;;;;;2.30;2.20;;;;;;;25.03;65.10;97766.59;5082854;28;20203;-21
2022/08/30 08:45:41;;;;;;;2.40;2.30;;;;;;;25.10;65.38;97778.72;5084598;28;20243;-21
2022/08/30 08:48:31;;;;;;;2.43;2.33;;;;;;;25.10;65.16;97784.75;5086206;28;20228;-21
2022/08/30 08:54:09;;;;;;;2.60;2.40;;;;;;;24.77;65.20;97727.50;5088803;28;20306;-21
2022/08/30 08:56:36;;;;;;;2.30;2.20;;;;;;;25.10;64.85;97789.88;5087165;28;20294;-21
2022/08/30 08:59:04;;;;;;;2.33;2.20;;;;;;;25.10;65.23;97783.84;5088309;28;21011;-30
2022/08/30 09:01:32;;;;;;;2.40;2.30;;;;;;;25.11;64.99;97783.03;5080320;28;20242;-21
2022/08/30 09:04:02;;;;;;;2.27;2.17;;;;;;;25.10;65.31;97782.16;5082536;28;20247;-21
2022/08/30 09:06:44;;;;;;;2.23;2.13;;;;;;;25.01;65.40;97758.84;5063676;28;20234;-21
2022/08/30 09:09:11;;;;;;;2.27;2.17;;;;;;;25.10;65.08;97771.88;5079917;28;20203;-21
2022/08/30 09:11:38;;;;;;;2.60;2.47;;;;;;;25.10;64.93;97768.44;5088451;28;20242;-21
2022/08/30 09:14:09;;;;;;;2.43;2.33;;;;;;;25.10;64.90;97769.31;5092448;28;20306;-21
2022/08/30 09:17:19;;;;;;;2.47;2.30;;;;;;;25.09;64.98;97771.84;5083045;28;20231;-21
2022/08/30 09:19:51;;;;;;;2.53;2.40;;;;;;;25.11;65.38;97772.75;5072525;28;20290;-21
2022/08/30 09:22:41;;;;;;;2.50;2.40;;;;;;;25.10;65.28;97765.84;5089183;28;20657;-21
2022/08/30 09:25:11;;;;;;;2.30;2.20;;;;;;;25.10;65.22;97764.16;5082586;28;20713;-21
2022/08/30 09:27:40;;;;;;;2.63;2.43;;;;;;;25.10;64.79;97759.00;5085395;28;20302;-22
2022/08/30 09:30:09;;;;;;;2.83;2.63;;;;;;;25.11;65.25;97765.03;5080645;28;20227;-22
2022/08/30 09:32:42;;;;;;;2.27;2.17;;;;;;;25.10;65.37;97759.00;5081454;28;20228;-21
2022/08/30 09:35:12;;;;;;;2.50;2.30;;;;;;;25.10;64.84;97766.72;5096568;22;20254;-31
2022/08/30 09:37:43;;;;;;;2.50;2.40;;;;;;;25.10;65.31;97756.44;5072774;28;20301;-31
2022/08/30 09:40:16;;;;;;;2.30;2.20;;;;;;;25.10;65.21;97753.88;5088327;28;20658;-31
2022/08/30 09:43:01;;;;;;;2.07;1.97;;;;;;;25.10;64.86;97748.72;5082791;28;20203;-31
2022/08/30 09:45:34;;;;;;;2.47;2.30;;;;;;;25.10;64.85;97747.84;5058167;28;20260;-32
2022/08/30 09:48:25;;;;;;;2.33;2.23;;;;;;;25.11;64.99;97745.31;5061578;28;20264;-32
2022/08/30 09:51:09;;;;;;;2.27;2.17;;;;;;;25.08;65.11;97736.69;5051513;28;20243;-31
2022/08/30 09:53:56;;;;;;;2.30;2.20;;;;;;;25.11;65.39;97747.03;5054770;28;20311;-31
2022/08/30 09:57:05;;;;;;;2.33;2.23;;;;;;;25.11;65.30;97741.88;5056067;28;20203;-31
2022/08/30 10:00:03;;;;;;;2.47;2.27;;;;;;;25.11;65.22;97739.31;5051555;28;20208;-31
2022/08/30 10:02:36;;;;;;;2.10;2.00;;;;;;;25.11;65.04;97736.75;5061912;28;20327;-31
2022/08/30 10:05:23;;;;;;;2.43;2.33;;;;;;;25.09;65.03;97731.56;5063730;28;20220;-32
2022/08/30 10:08:12;;;;;;;2.30;2.20;;;;;;;25.11;65.38;97731.59;5059005;28;20251;-31
2022/08/30 10:10:46;;;;;;;2.20;2.10;;;;;;;25.10;65.33;97728.16;5054896;28;20295;-31
2022/08/30 10:13:36;;;;;;;2.20;2.10;;;;;;;25.11;64.92;97726.47;5065185;28;20218;-31
2022/08/30 10:16:25;;;;;;;2.57;2.37;;;;;;;25.10;65.34;97729.84;5049112;28;20250;-31
2022/08/30 10:19:01;;;;;;;2.00;1.90;;;;;;;25.10;65.05;97728.16;5067237;28;20243;-31
2022/08/30 10:21:57;;;;;;;2.17;2.07;;;;;;;25.03;65.38;97712.56;5062134;28;20208;-31
2022/08/30 10:24:26;;;;;;;2.10;2.00;;;;;;;25.09;64.85;97711.00;5059712;28;20674;-31
2022/08/30 10:27:10;;;;;;;2.67;2.23;;;;;;;24.98;65.08;97689.34;5058258;28;20603;-31
2022/08/30 10:29:46;;;;;;;2.27;2.17;;;;;;;25.10;65.38;97710.16;5052037;28;20236;-32
2022/08/30 10:32:23;;;;;;;2.30;2.10;;;;;;;25.11;64.94;97711.03;5064020;28;20252;-31
2022/08/30 10:35:04;;;;;;;2.10;2.00;;;;;;;25.11;65.09;97713.59;5051077;28;20648;-31
2022/08/30 10:37:35;;;;;;;2.20;2.10;;;;;;;25.10;65.38;97701.56;5052296;28;20247;-31
2022/08/30 10:41:11;;;;;;;2.10;2.00;;;;;;;24.99;64.96;97679.94;5055921;28;20756;-31
2022/08/30 10:42:51;;;;;;;2.40;2.30;;;;;;;25.10;65.33;97689.56;5051887;28;20192;-31
2022/08/30 10:45:18;;;;;;;2.30;2.20;;;;;;;25.10;64.93;97699.84;5060420;28;20224;-31
2022/08/30 10:48:13;;;;;;;2.20;2.10;;;;;;;25.10;64.92;97696.41;5060973;28;20204;-31
2022/08/30 10:50:41;;;;;;;2.10;2.00;;;;;;;25.05;64.79;97673.19;5014485;28;20215;-31
2022/08/30 10:53:14;;;;;;;2.33;2.20;;;;;;;25.10;65.22;97686.13;5039839;28;20303;-31
2022/08/30 10:55:45;;;;;;;2.10;2.00;;;;;;;24.99;65.27;97660.22;5053389;28;20333;-31
2022/08/30 10:58:16;;;;;;;2.07;1.97;;;;;;;25.11;65.15;97682.72;5063059;28;20209;-31
2022/08/30 11:01:04;;;;;;;2.07;1.97;;;;;;;25.10;65.22;97676.72;5051297;28;20763;-31
2022/08/30 11:03:38;;;;;;;2.13;2.03;;;;;;;25.10;65.39;97676.72;5064578;28;20208;-31
2022/08/30 11:06:15;;;;;;;2.20;2.10;;;;;;;25.00;65.28;97659.41;5056095;28;20653;-31
2022/08/30 11:09:10;;;;;;;2.10;2.00;;;;;;;25.09;65.30;97668.97;5056574;28;20235;-31
2022/08/30 11:11:57;;;;;;;2.10;2.00;;;;;;;25.11;64.90;97673.28;5067169;28;20211;-31
2022/08/30 11:14:24;;;;;;;2.43;2.30;;;;;;;25.11;65.39;97675.84;5067775;28;20311;-31
2022/08/30 11:16:52;;;;;;;2.13;2.03;;;;;;;25.11;65.17;97670.72;5050827;28;20204;-31
2022/08/30 11:19:27;;;;;;;2.10;2.00;;;;;;;25.11;65.08;97669.88;5053784;28;20352;-31
2022/08/30 11:22:12;;;;;;;1.97;1.87;;;;;;;25.10;65.33;97665.53;5061310;28;20640;-31
2022/08/30 11:25:01;;;;;;;2.50;2.30;;;;;;;25.10;65.17;97666.44;5056322;28;20771;-31
2022/08/30 11:27:44;;;;;;;2.50;2.30;;;;;;;25.10;65.33;97661.28;5062042;28;20867;-31
2022/08/30 11:30:23;;;;;;;2.10;2.00;;;;;;;25.10;65.19;97666.44;5068756;28;20630;-31
2022/08/30 11:33:39;;;;;;;2.10;2.00;;;;;;;25.10;64.89;97661.28;5065083;28;20231;-31
2022/08/30 11:36:06;;;;;;;2.30;2.20;;;;;;;25.11;65.30;97654.44;5030895;28;20207;-31
2022/08/30 11:38:32;;;;;;;2.27;2.17;;;;;;;25.10;64.93;97657.84;5057368;28;20641;-31
2022/08/30 11:41:13;;;;;;;2.53;2.33;;;;;;;25.12;65.13;97656.16;5059015;28;20327;-32
2022/08/30 11:43:42;;;;;;;2.10;2.00;;;;;;;25.11;65.02;97652.72;5051787;28;20640;-31
2022/08/30 11:46:19;;;;;;;2.30;2.20;;;;;;;25.11;65.23;97659.59;5056212;28;20311;-31
2022/08/30 11:49:14;;;;;;;2.27;2.17;;;;;;;25.11;65.15;97662.16;5056038;28;20215;-31
2022/08/30 11:51:52;;;;;;;2.17;2.07;;;;;;;25.02;64.71;97644.00;5068828;28;20197;-31
2022/08/30 11:54:58;;;;;;;2.17;2.07;;;;;;;25.10;65.33;97658.72;5055390;28;20510;-31